Organisasjoner
Antall som skal vises: 
Nr. Nettlenke Treff
1   Link   AOPA
1575
2   Link   AOPA Australia
1874
3   Link   AOPA Danmark
1990
4   Link   AOPA Nederland
1636
5   Link   AOPA Norway
1912
6   Link   AOPA Sveits
1671
7   Link   AOPA Tyskland
1618
8   Link   EAA
1595
9   Link   EAA Norway
2174
10   Link   Federation Aeronautique Internationale
1559
11   Link   IAOPA
1616
12   Link   Kongelig Dansk Aeroklub
1746
13   Link   Kungliga Svenska Aeroklubben
2045
14   Link   Norsk Aero Klubb
1718
15   Link   PPL-IR
2527
16   Link   Suomen Ilmailuliitto
1619
17   Link   X-Prize
1599
 
METAR
2018/06/24 02:50 ENCN 240250Z AUTO VRB02KT 9999 NCD 12/07 Q1015
TAF
2018/06/24 03:38 TAF ENCN 240200Z 2403/2412 VRB05KT CAVOK BECMG 2410/2412 21010KT
LN-KFK
Operativ VFR-natt
VFR dag
03:05 - 23:54
Brannvakt
Inaktiv
Banner
Banner
Banner
Banner
Banner